Terminal Aerodrome Forecast
Issued by NWS

Home | Current Version | Previous Version | Text Only | Print | Product List | Glossary On
Versions: 1 2 3 4 5 6 7 8 9 10 11 12 13 14 15 16
000
FTUS45 KSLC 260019 AAA
TAFBCE
TAF AMD
KBCE 260019Z 2600/2624 20011G18KT P6SM BKN060 BKN120
     FM260200 22007KT P6SM SCT060
     FM261700 24013G20KT P6SM SCT050=

USA.gov is the U.S. government's official web portal to all federal, state and local government web resources and services.